Time;durP1;ratioP1;P1;durP2;ratioP2;P2;SDS_P1;SDS_P2;PMS_P1;PMS_P2;Temp;Humidity;BMP_temperature;BMP_pressure;BME280_temperature;BME280_humidity;BME280_pressure;Samples;Min_cycle;Max_cycle;Signal;HPM_P1;HPM_P2
2022/12/21 00:00:09;;;;;;;5.25;2.58;;;11.90;58.60;;;6.93;81.08;95575.25;4974589;28;20026;-55
2022/12/21 00:02:39;;;;;;;4.03;2.65;;;11.90;58.60;;;6.88;81.62;95578.59;4973146;28;20033;-49
2022/12/21 00:05:08;;;;;;;3.83;2.17;;;11.90;58.60;;;6.76;82.20;95579.72;4955889;28;20041;-55
2022/12/21 00:07:40;;;;;;;3.58;2.42;;;11.80;58.60;;;6.70;82.12;95579.63;4972668;28;20105;-52
2022/12/21 00:10:10;;;;;;;3.88;2.38;;;11.70;58.60;;;6.66;82.68;95570.56;4969280;28;20019;-54
2022/12/21 00:12:38;;;;;;;5.40;2.70;;;11.70;58.60;;;6.60;83.35;95576.81;4974030;28;20026;-55
2022/12/21 00:15:06;;;;;;;5.00;2.65;;;11.60;58.70;;;6.49;83.71;95580.34;4972847;28;20023;-56
2022/12/21 00:17:37;;;;;;;4.88;2.60;;;11.60;58.80;;;6.35;84.46;95582.47;4972764;28;20029;-49
2022/12/21 00:20:10;;;;;;;3.63;2.70;;;11.50;58.70;;;6.22;85.18;95569.53;4974168;28;20101;-52
2022/12/21 00:22:39;;;;;;;4.97;2.50;;;11.40;58.80;;;6.10;86.35;95568.78;4964548;28;20034;-52
2022/12/21 00:25:06;;;;;;;4.32;2.50;;;11.30;58.90;;;6.05;86.78;95571.31;4983160;28;20026;-51
2022/12/21 00:27:35;;;;;;;3.72;2.20;;;11.20;58.90;;;5.92;87.36;95569.72;4971175;28;20377;-49
2022/12/21 00:30:01;;;;;;;3.10;2.40;;;11.10;59.10;;;5.89;87.55;95571.03;4972488;28;20049;-49
2022/12/21 00:32:33;;;;;;;3.58;2.50;;;11.00;59.20;;;5.84;87.60;95568.28;4972744;28;20022;-53
2022/12/21 00:35:02;;;;;;;3.30;2.30;;;10.90;59.30;;;5.85;87.86;95561.16;4972820;28;20026;-52
2022/12/21 00:37:28;;;;;;;6.28;2.67;;;10.90;59.50;;;5.78;88.10;95566.56;4956139;28;20034;-49
2022/12/21 00:40:04;;;;;;;3.63;1.92;;;10.80;59.50;;;5.84;86.69;95554.25;4973076;28;20018;-56
2022/12/21 00:42:32;;;;;;;4.28;1.90;;;10.80;59.70;;;6.00;85.93;95558.81;4972565;28;20057;-50
2022/12/21 00:45:01;;;;;;;3.50;1.77;;;10.80;60.00;;;6.22;84.67;95564.25;4973471;28;20030;-50
2022/12/21 00:47:27;;;;;;;3.88;1.70;;;10.90;60.10;;;6.33;83.55;95562.56;4972070;28;20373;-53
2022/12/21 00:49:58;;;;;;;3.65;2.22;;;11.00;60.10;;;6.34;84.79;95554.41;4973642;28;20083;-49
2022/12/21 00:52:27;;;;;;;5.70;2.25;;;11.10;60.00;;;6.26;85.23;95546.84;4972434;28;20030;-51
2022/12/21 00:54:53;;;;;;;3.47;2.17;;;11.10;59.90;;;6.20;85.49;95555.75;4968784;28;20125;-50
2022/12/21 00:57:21;;;;;;;4.03;1.98;;;11.10;59.80;;;6.15;85.63;95550.38;4966169;28;20500;-55
2022/12/21 00:59:53;;;;;;;2.53;1.67;;;11.00;59.70;;;6.10;86.04;95558.22;4972268;28;20029;-54
2022/12/21 01:02:19;;;;;;;3.35;1.70;;;11.00;59.70;;;6.04;85.88;95549.38;4973539;28;20480;-52
2022/12/21 01:04:49;;;;;;;3.38;1.80;;;11.00;59.80;;;6.05;86.39;95545.72;4954912;28;20026;-55
2022/12/21 01:07:18;;;;;;;4.63;1.70;;;10.90;59.80;;;6.05;85.98;95552.81;4971742;28;20060;-49
2022/12/21 01:09:44;;;;;;;6.43;1.90;;;10.90;59.90;;;6.08;86.38;95557.63;4972452;28;20370;-50
2022/12/21 01:12:10;;;;;;;4.50;1.88;;;10.90;59.90;;;6.03;86.33;95553.06;4971376;28;20077;-52
2022/12/21 01:14:39;;;;;;;2.38;1.88;;;10.90;59.90;;;5.97;87.04;95546.88;4988451;28;20034;-51
2022/12/21 01:17:10;;;;;;;5.68;2.00;;;10.80;59.90;;;5.91;87.35;95542.50;4971909;28;20026;-53
2022/12/21 01:19:39;;;;;;;5.28;1.45;;;10.80;60.00;;;5.94;87.25;95533.31;4968359;28;20022;-51
2022/12/21 01:22:05;;;;;;;2.75;1.80;;;10.80;60.10;;;5.93;86.97;95545.75;4971842;28;20038;-49
2022/12/21 01:24:37;;;;;;;4.70;2.28;;;10.80;60.20;;;5.94;87.05;95547.34;4971649;28;20072;-51
2022/12/21 01:27:03;;;;;;;3.30;1.70;;;10.80;60.30;;;5.96;86.96;95539.19;4955322;28;20493;-50
2022/12/21 01:29:38;;;;;;;4.50;2.10;;;10.80;60.40;;;5.95;86.81;95543.66;4953427;28;20076;-49
2022/12/21 01:32:07;;;;;;;5.38;2.08;;;10.80;60.40;;;5.98;86.73;95551.13;4972912;28;20121;-51
2022/12/21 01:34:33;;;;;;;3.13;1.77;;;10.80;60.40;;;5.94;86.97;95550.00;4971511;28;20396;-49
2022/12/21 01:36:59;;;;;;;3.38;1.67;;;10.80;60.40;;;6.00;86.34;95549.03;4971491;28;20026;-50
2022/12/21 01:39:25;;;;;;;4.60;1.77;;;10.80;60.50;;;6.16;85.99;95551.97;4969566;28;20029;-49
2022/12/21 01:41:54;;;;;;;4.03;1.40;;;10.80;60.50;;;6.31;85.17;95546.16;4972697;28;20025;-52
2022/12/21 01:45:23;;;;;;;2.13;1.52;;;10.90;60.70;;;6.46;85.41;95555.16;4967507;28;20110;-54
2022/12/21 01:48:17;;;;;;;4.63;1.60;;;11.00;60.60;;;6.57;85.16;95550.81;4958093;28;20034;-52
2022/12/21 01:50:48;;;;;;;;;;;11.10;60.80;;;6.74;83.25;95548.22;4972569;28;20054;-51
2022/12/21 01:53:36;;;;;;;3.00;1.30;;;11.20;60.80;;;6.95;82.01;95551.94;4970210;28;19909;-52
2022/12/21 01:56:10;;;;;;;1.77;1.40;;;11.30;60.70;;;7.15;81.16;95546.16;4971133;28;20034;-54
2022/12/21 01:58:46;;;;;;;1.75;1.30;;;11.40;60.60;;;7.26;81.45;95555.03;4967691;28;20026;-52
2022/12/21 02:01:12;;;;;;;3.92;1.45;;;11.50;60.60;;;7.31;80.74;95549.81;4970880;28;20041;-53
2022/12/21 02:03:48;;;;;;;2.10;1.40;;;11.70;60.50;;;7.36;80.25;95536.63;4969999;28;20022;-51
2022/12/21 02:06:32;;;;;;;4.57;1.60;;;11.70;60.20;;;7.42;80.05;95547.03;4971032;28;20022;-53
2022/12/21 02:09:02;;;;;;;3.55;1.70;;;11.90;60.10;;;7.46;79.99;95539.44;4967116;28;20038;-51
2022/12/21 02:11:29;;;;;;;2.65;1.55;;;11.90;60.00;;;7.51;80.20;95543.97;4968656;28;20161;-55
2022/12/21 02:13:58;;;;;;;4.55;1.83;;;12.00;59.90;;;7.54;79.53;95541.63;4954707;28;20129;-50
2022/12/21 02:17:03;;;;;;;3.95;1.70;;;12.00;59.70;;;7.56;79.62;95542.19;4970761;28;20018;-53
2022/12/21 02:20:29;;;;;;;3.60;2.00;;;12.10;59.60;;;7.55;79.30;95537.13;4970821;28;20113;-53
2022/12/21 02:24:28;;;;;;;3.30;1.60;;;12.20;59.60;;;7.58;79.98;95545.41;4959969;28;20135;-51
2022/12/21 02:28:12;;;;;;;2.53;1.70;;;12.20;59.40;;;7.58;80.54;95539.28;4971357;28;20038;-53
2022/12/21 02:31:14;;;;;;;2.67;1.70;;;12.20;59.40;;;7.53;81.21;95542.69;4921738;28;20130;-49
2022/12/21 02:34:31;;;;;;;2.45;1.60;;;12.20;59.50;;;7.41;81.65;95540.16;4964462;28;20074;-49
2022/12/21 02:37:42;;;;;;;4.07;1.73;;;12.20;59.40;;;7.33;82.37;95543.25;4959347;28;20034;-49
2022/12/21 02:40:46;;;;;;;4.05;1.83;;;12.10;59.30;;;7.28;82.93;95540.50;4964450;28;20031;-52
2022/12/21 02:44:13;;;;;;;5.63;1.85;;;12.10;59.40;;;7.26;83.26;95544.44;4963775;28;20540;-50
2022/12/21 02:46:53;;;;;;;4.35;1.85;;;12.00;59.50;;;7.26;83.47;95547.09;4967920;28;20030;-52
2022/12/21 02:50:04;;;;;;;3.15;2.03;;;12.00;59.60;;;7.27;84.04;95552.16;4969843;28;20117;-49
2022/12/21 02:53:09;;;;;;;4.72;2.03;;;11.90;59.60;;;7.26;84.06;95547.91;4951617;28;20088;-51
2022/12/21 02:55:45;;;;;;;3.63;2.00;;;11.90;59.70;;;7.29;84.20;95551.91;4966219;28;20138;-50
2022/12/21 02:58:20;;;;;;;1.98;1.65;;;11.90;59.80;;;7.25;84.24;95550.81;4964749;28;20035;-49
2022/12/21 03:01:58;;;;;;;4.88;1.95;;;11.90;59.90;;;7.08;85.59;95551.63;4964204;28;20026;-54
2022/12/21 03:05:03;;;;;;;4.03;2.03;;;11.90;59.80;;;7.01;85.92;95560.78;4968908;28;20029;-49
2022/12/21 03:07:56;;;;;;;4.88;2.40;;;11.80;59.90;;;6.94;86.53;95564.38;4969764;28;20148;-49
2022/12/21 03:10:45;;;;;;;3.85;2.00;;;11.80;60.10;;;6.87;87.32;95560.31;4970252;28;20072;-54
2022/12/21 03:13:56;;;;;;;3.17;2.45;;;11.70;60.10;;;6.77;88.67;95560.13;4971073;28;20105;-49
2022/12/21 03:17:12;;;;;;;3.13;2.20;;;11.70;60.30;;;6.63;89.76;95562.31;4969120;28;20022;-49
2022/12/21 03:20:12;;;;;;;2.85;1.98;;;11.60;60.40;;;6.47;91.71;95562.03;4914621;29;20034;-53
2022/12/21 03:24:01;;;;;;;5.70;2.42;;;11.50;60.60;;;6.26;94.22;95555.59;4914369;29;20062;-52
2022/12/21 03:26:47;;;;;;;3.72;2.10;;;11.30;60.70;;;6.24;94.64;95548.97;4826857;29;20041;-49
2022/12/21 03:29:25;;;;;;;5.22;2.80;;;11.20;61.10;;;6.19;94.73;95552.31;4854700;29;20029;-53
2022/12/21 03:32:09;;;;;;;5.32;2.55;;;11.10;61.30;;;6.19;95.40;95556.78;4897114;29;20134;-52
2022/12/21 03:34:44;;;;;;;5.47;2.78;;;11.10;61.70;;;6.17;94.98;95549.09;4917167;29;20055;-49
2022/12/21 03:37:24;;;;;;;6.53;3.08;;;11.00;62.00;;;6.12;96.54;95558.78;4899034;29;20043;-52
2022/12/21 03:40:19;;;;;;;3.60;2.45;;;11.00;62.20;;;6.00;98.18;95553.53;4900111;29;20034;-50
2022/12/21 03:43:42;;;;;;;3.95;2.90;;;11.00;62.40;;;5.96;99.85;95555.06;4899292;29;20031;-53
2022/12/21 03:46:49;;;;;;;4.07;3.20;;;10.90;62.50;;;5.92;99.91;95544.13;4917613;29;20032;-53
2022/12/21 03:49:47;;;;;;;3.90;3.17;;;10.80;62.70;;;5.83;100.00;95548.19;4936791;28;20482;-54
2022/12/21 03:52:32;;;;;;;4.78;3.67;;;10.70;63.00;;;5.81;100.00;95544.94;4968877;28;20033;-51
2022/12/21 03:55:27;;;;;;;8.35;3.25;;;10.60;63.20;;;5.81;100.00;95542.31;4956677;28;20045;-50
2022/12/21 03:58:02;;;;;;;6.63;3.25;;;10.60;63.50;;;5.78;100.00;95548.06;4970944;28;20038;-50
2022/12/21 04:00:47;;;;;;;4.80;3.55;;;10.50;63.70;;;5.78;100.00;95545.41;4954641;28;20803;-54
2022/12/21 04:03:27;;;;;;;8.48;3.97;;;10.50;64.10;;;5.76;100.00;95552.78;4967305;28;20496;-51
2022/12/21 04:06:05;;;;;;;5.47;3.75;;;10.50;64.30;;;5.76;100.00;95545.66;4971331;28;20026;-57
2022/12/21 04:08:35;;;;;;;7.75;3.55;;;10.50;64.50;;;5.79;100.00;95544.38;4962658;28;20411;-53
2022/12/21 04:11:01;;;;;;;6.35;3.92;;;10.50;64.70;;;5.78;100.00;95540.94;4939534;28;20505;-53
2022/12/21 04:13:34;;;;;;;7.28;3.83;;;10.50;64.70;;;5.77;100.00;95544.63;4972104;28;20068;-51
2022/12/21 04:16:03;;;;;;;8.27;4.10;;;10.50;65.00;;;5.77;100.00;95546.47;4971937;28;20542;-53
2022/12/21 04:21:14;;;;;;;6.70;3.90;;;10.60;65.20;;;5.77;100.00;95541.97;4958105;28;20032;-55
2022/12/21 04:29:13;;;;;;;6.57;3.85;;;10.60;65.50;;;5.77;100.00;95564.97;4970081;28;20029;-50
2022/12/21 04:31:42;;;;;;;10.00;4.43;;;10.60;65.50;;;5.79;100.00;95566.31;4963772;28;20030;-54
2022/12/21 04:34:12;;;;;;;6.28;3.58;;;10.60;65.80;;;5.85;100.00;95561.16;4968173;28;20389;-56
2022/12/21 04:39:22;;;;;;;6.97;3.00;;;10.60;66.10;;;6.00;100.00;95566.75;4959954;28;20040;-53
2022/12/21 04:42:09;;;;;;;5.50;2.92;;;10.70;66.40;;;6.02;100.00;95562.84;4971860;28;20018;-55
2022/12/21 04:44:37;;;;;;;4.15;2.70;;;10.70;66.50;;;6.03;100.00;95567.09;4972018;28;20029;-51
2022/12/21 04:47:08;;;;;;;6.45;3.28;;;10.70;66.40;;;6.03;100.00;95572.38;4970800;28;20030;-55
2022/12/21 04:49:37;;;;;;;7.75;4.22;;;10.80;66.30;;;6.02;100.00;95564.69;4973012;28;20560;-49
2022/12/21 04:52:04;;;;;;;6.03;4.25;;;10.80;66.30;;;6.00;100.00;95570.19;4966413;28;20031;-52
2022/12/21 04:54:29;;;;;;;9.05;5.03;;;10.80;66.20;;;6.00;100.00;95577.34;4969730;23;20073;-52
2022/12/21 04:56:55;;;;;;;8.70;4.22;;;10.70;66.20;;;6.02;100.00;95577.91;4983291;28;20137;-50
2022/12/21 04:59:26;;;;;;;9.70;4.40;;;10.80;66.40;;;6.03;100.00;95574.22;4964900;28;20041;-53
2022/12/21 05:01:52;;;;;;;4.60;3.13;;;10.80;66.60;;;6.06;100.00;95572.94;4961649;28;20061;-52
2022/12/21 05:04:34;;;;;;;12.50;4.13;;;10.80;66.70;;;6.10;100.00;95576.72;4963010;28;20113;-57
2022/12/21 05:07:06;;;;;;;5.72;3.10;;;10.80;67.10;;;6.18;100.00;95579.00;4965568;28;20033;-50
2022/12/21 05:09:32;;;;;;;6.22;2.92;;;10.90;67.10;;;6.23;100.00;95574.59;4941062;28;20069;-49
2022/12/21 05:11:58;;;;;;;5.50;3.28;;;10.90;67.30;;;6.27;100.00;95574.94;4929572;28;20455;-53
2022/12/21 05:14:27;;;;;;;5.07;2.90;;;10.90;67.40;;;6.35;100.00;95571.09;4957155;28;20034;-53
2022/12/21 05:16:56;;;;;;;4.10;2.22;;;10.90;67.60;;;6.37;100.00;95569.81;4962524;28;20022;-51
2022/12/21 05:19:24;;;;;;;4.25;2.75;;;11.00;67.70;;;6.43;100.00;95581.31;4952863;28;20030;-53
2022/12/21 05:21:51;;;;;;;3.92;2.50;;;11.00;67.70;;;6.47;100.00;95579.78;4950828;28;20026;-52
2022/12/21 05:24:26;;;;;;;4.50;2.42;;;11.00;67.70;;;6.48;100.00;95578.72;4952493;28;20385;-51
2022/12/21 05:26:55;;;;;;;9.13;2.95;;;11.00;67.80;;;6.52;100.00;95579.88;4951638;28;20046;-50
2022/12/21 05:29:21;;;;;;;6.00;2.40;;;11.10;68.00;;;6.58;100.00;95583.38;4948072;28;20029;-52
2022/12/21 05:31:52;;;;;;;6.90;2.08;;;11.10;68.00;;;6.60;100.00;95590.06;4951548;28;20026;-48
2022/12/21 05:34:27;;;;;;;5.68;2.80;;;11.10;68.10;;;6.65;100.00;95584.84;4966185;28;20026;-54
2022/12/21 05:36:52;;;;;;;6.65;2.20;;;11.10;68.00;;;6.68;100.00;95586.22;4952592;28;20031;-55
2022/12/21 05:39:18;;;;;;;4.55;2.60;;;11.10;68.00;;;6.71;100.00;95585.75;4952107;28;20039;-56
2022/12/21 05:41:50;;;;;;;7.60;2.40;;;11.20;68.00;;;6.71;100.00;95583.09;4952405;28;20066;-49
2022/12/21 05:44:21;;;;;;;5.80;2.58;;;11.20;68.00;;;6.72;100.00;95585.50;4950874;28;20120;-49
2022/12/21 05:46:47;;;;;;;8.77;2.60;;;11.20;68.00;;;6.70;100.00;95589.41;4951544;28;20049;-49
2022/12/21 05:49:13;;;;;;;5.50;2.15;;;11.20;67.90;;;6.68;100.00;95586.22;4952113;28;20030;-50
2022/12/21 05:51:39;;;;;;;4.10;2.30;;;11.30;68.00;;;6.68;100.00;95587.03;4951673;28;20038;-52
2022/12/21 05:54:05;;;;;;;8.15;2.40;;;11.20;68.10;;;6.70;100.00;95589.41;4952022;28;20031;-52
2022/12/21 05:56:31;;;;;;;6.43;2.20;;;11.20;68.20;;;6.68;100.00;95589.66;4942264;28;20066;-54
2022/12/21 05:59:05;;;;;;;5.45;2.13;;;11.20;68.30;;;6.70;100.00;95579.63;4948858;28;20073;-49
2022/12/21 06:01:32;;;;;;;4.35;2.22;;;11.20;68.50;;;6.73;100.00;95576.50;4943696;28;20023;-51
2022/12/21 06:03:58;;;;;;;7.30;2.22;;;11.20;68.40;;;6.76;100.00;95583.16;4949505;28;20023;-56
2022/12/21 06:06:26;;;;;;;6.22;2.40;;;11.20;68.50;;;6.73;100.00;95578.34;4933094;28;20080;-54
2022/12/21 06:09:02;;;;;;;6.35;2.20;;;11.20;68.50;;;6.72;100.00;95574.91;4932741;28;20069;-50
2022/12/21 06:11:28;;;;;;;6.88;3.05;;;11.30;68.70;;;6.73;100.00;95581.78;4954196;28;20026;-53
2022/12/21 06:13:54;;;;;;;6.97;2.53;;;11.30;68.60;;;6.73;100.00;95581.00;4948542;28;20026;-50
2022/12/21 06:16:26;;;;;;;4.50;2.63;;;11.20;68.70;;;6.74;100.00;95577.31;4949584;28;20026;-51
2022/12/21 06:18:53;;;;;;;4.00;2.60;;;11.20;68.90;;;6.70;100.00;95571.69;4950048;28;20045;-48
2022/12/21 06:21:20;;;;;;;6.03;2.50;;;11.20;68.90;;;6.73;100.00;95573.06;4949505;28;20030;-51
2022/12/21 06:23:48;;;;;;;6.13;2.65;;;11.20;69.00;;;6.75;100.00;95572.81;4945190;28;20134;-54
2022/12/21 06:26:19;;;;;;;5.35;2.50;;;11.20;69.00;;;6.72;100.00;95569.59;4959742;28;20109;-51
2022/12/21 06:28:52;;;;;;;7.97;3.10;;;11.20;69.00;;;6.72;100.00;95568.81;4949630;28;20023;-50
2022/12/21 06:31:20;;;;;;;9.50;3.08;;;11.20;69.00;;;6.67;100.00;95572.16;4946906;28;21544;-56
2022/12/21 06:33:49;;;;;;;7.15;2.90;;;11.20;68.90;;;6.63;100.00;95573.69;4942048;28;20054;-54
2022/12/21 06:36:18;;;;;;;5.47;2.50;;;11.20;69.00;;;6.66;100.00;95575.06;4945969;28;20029;-58
2022/12/21 06:38:56;;;;;;;5.07;2.33;;;11.20;69.10;;;6.66;100.00;95567.91;4942989;28;20448;-52
2022/12/21 06:41:22;;;;;;;5.55;2.55;;;11.20;69.40;;;6.70;100.00;95573.53;4949561;28;20084;-52
2022/12/21 06:43:49;;;;;;;3.85;2.15;;;11.20;69.40;;;6.68;100.00;95568.50;4944706;28;20041;-48
2022/12/21 06:46:19;;;;;;;7.30;2.50;;;11.20;69.40;;;6.69;100.00;95571.94;4947501;28;20019;-50
2022/12/21 06:48:48;;;;;;;5.55;2.55;;;11.20;69.50;;;6.67;100.00;95571.38;4948647;28;20027;-56
2022/12/21 06:51:20;;;;;;;7.82;2.45;;;11.20;69.50;;;6.69;100.00;95566.66;4944260;28;20026;-51
2022/12/21 06:53:50;;;;;;;4.13;2.40;;;11.20;69.60;;;6.70;100.00;95574.31;4955322;28;20030;-49
2022/12/21 06:56:28;;;;;;;3.13;2.13;;;11.20;69.70;;;6.71;100.00;95572.50;4949155;28;20130;-48
2022/12/21 06:58:55;;;;;;;8.52;2.70;;;11.20;69.70;;;6.68;100.00;95573.78;4947530;28;20030;-49
2022/12/21 07:01:36;;;;;;;3.25;2.40;;;11.20;69.60;;;6.65;100.00;95574.25;4947797;28;20011;-49
2022/12/21 07:04:02;;;;;;;6.45;2.45;;;11.20;69.70;;;6.63;100.00;95568.41;4949353;28;20392;-49
2022/12/21 07:06:31;;;;;;;3.70;2.53;;;11.20;69.70;;;6.64;100.00;95567.38;4939293;28;20030;-49
2022/12/21 07:08:59;;;;;;;4.38;2.35;;;11.20;69.70;;;6.65;100.00;95578.75;4931202;29;20023;-50
2022/12/21 07:11:29;;;;;;;4.60;2.42;;;11.20;69.70;;;6.65;100.00;95573.47;4946682;28;20061;-54
2022/12/21 07:13:59;;;;;;;9.68;2.67;;;11.10;69.70;;;6.64;100.00;95577.97;4944371;29;20052;-52
2022/12/21 07:16:26;;;;;;;5.20;2.40;;;11.20;69.80;;;6.64;100.00;95564.72;4941829;28;20114;-53
2022/12/21 07:18:53;;;;;;;7.22;2.50;;;11.20;69.90;;;6.66;100.00;95565.28;4949048;29;20401;-49
2022/12/21 07:21:21;;;;;;;4.72;2.80;;;11.20;70.00;;;6.66;100.00;95562.63;4964155;28;20081;-54
2022/12/21 07:23:48;;;;;;;6.57;2.50;;;11.20;70.10;;;6.63;100.00;95564.97;4947849;29;20393;-49
2022/12/21 07:26:20;;;;;;;8.00;2.75;;;11.20;70.10;;;6.60;100.00;95557.50;4949157;29;20486;-54
2022/12/21 07:28:50;;;;;;;6.38;2.80;;;11.20;70.10;;;6.59;100.00;95563.84;4942987;28;20437;-55
2022/12/21 07:31:25;;;;;;;5.97;2.88;;;11.10;70.10;;;6.59;100.00;95558.53;4934748;29;20023;-49
2022/12/21 07:33:52;;;;;;;5.68;3.35;;;11.20;70.20;;;6.49;100.00;95573.22;4945733;28;20033;-55
2022/12/21 07:36:18;;;;;;;4.97;2.95;;;11.10;70.10;;;6.56;100.00;95551.09;4946421;29;20025;-49
2022/12/21 07:38:44;;;;;;;14.05;3.33;;;11.10;70.10;;;6.54;100.00;95569.03;4944467;28;20092;-50
2022/12/21 07:41:15;;;;;;;5.03;2.72;;;11.10;70.10;;;6.45;100.00;95553.53;4958417;28;20026;-51
2022/12/21 07:43:43;;;;;;;12.07;3.22;;;11.10;70.10;;;6.45;100.00;95552.75;4948334;28;20027;-49
2022/12/21 07:46:10;;;;;;;6.72;3.13;;;11.10;70.10;;;6.43;100.00;95570.72;4945749;28;20050;-54
2022/12/21 07:48:40;;;;;;;9.00;3.65;;;11.10;70.10;;;6.46;100.00;95554.38;4940351;28;20030;-51
2022/12/21 07:51:06;;;;;;;6.75;3.38;;;11.10;70.20;;;6.42;100.00;95553.22;4947389;28;20045;-54
2022/12/21 07:53:36;;;;;;;7.78;3.30;;;11.10;70.10;;;6.28;100.00;95563.31;4946560;28;20057;-50
2022/12/21 07:56:12;;;;;;;6.53;3.58;;;11.10;70.30;;;6.38;100.00;95566.13;4928305;29;20069;-50
2022/12/21 07:58:38;;;;;;;6.72;3.53;;;11.10;70.40;;;6.43;100.00;95552.19;4947060;28;20089;-50
2022/12/21 08:01:13;;;;;;;7.38;3.30;;;11.00;70.30;;;6.39;100.00;95567.75;4946590;29;20023;-49
2022/12/21 08:03:44;;;;;;;7.53;3.55;;;11.10;70.40;;;6.41;100.00;95557.72;4944479;28;20045;-55
2022/12/21 08:06:15;;;;;;;7.30;3.63;;;11.00;70.30;;;6.44;100.00;95551.16;4934004;28;20026;-49
2022/12/21 08:08:43;;;;;;;4.63;3.22;;;11.00;70.40;;;6.47;100.00;95564.69;4945141;29;20023;-50
2022/12/21 08:11:19;;;;;;;5.68;3.20;;;11.10;70.40;;;6.50;100.00;95563.41;4945563;28;20039;-54
2022/12/21 08:13:47;;;;;;;8.65;3.45;;;11.10;70.50;;;6.54;100.00;95569.03;4948003;29;20493;-50
2022/12/21 08:16:18;;;;;;;12.40;4.80;;;11.20;70.40;;;6.49;100.00;95559.19;4931202;28;20051;-50
2022/12/21 08:18:45;;;;;;;6.65;3.58;;;11.10;70.40;;;6.53;100.00;95562.16;4927418;29;20063;-49
2022/12/21 08:21:12;;;;;;;11.18;3.70;;;11.20;70.40;;;6.56;100.00;95559.03;4960837;28;20019;-50
2022/12/21 08:23:41;;;;;;;8.25;3.33;;;11.20;70.40;;;6.56;100.00;95564.31;4958762;28;20030;-55
2022/12/21 08:26:11;;;;;;;8.52;3.88;;;11.20;70.30;;;6.56;100.00;95566.97;4949736;28;20166;-51
2022/12/21 08:28:38;;;;;;;9.93;3.85;;;11.20;70.30;;;6.52;100.00;95581.69;4944459;28;20027;-52
2022/12/21 08:31:17;;;;;;;8.07;4.35;;;11.20;70.20;;;6.51;100.00;95583.53;4950231;28;20034;-49
2022/12/21 08:33:45;;;;;;;10.10;4.60;;;11.20;70.30;;;6.53;100.00;95591.25;4944792;28;20030;-52
2022/12/21 08:36:20;;;;;;;12.02;5.00;;;11.20;70.20;;;6.55;100.00;95583.84;4946059;28;20015;-52
2022/12/21 08:38:50;;;;;;;11.88;5.13;;;11.20;70.20;;;6.53;100.00;95583.31;4947301;28;20081;-54
2022/12/21 08:41:17;;;;;;;12.48;6.03;;;11.30;70.30;;;6.53;100.00;95581.47;4952423;28;20482;-52
2022/12/21 08:43:43;;;;;;;13.50;5.28;;;11.30;70.30;;;6.55;100.00;95582.03;4968205;28;20030;-51
2022/12/21 08:46:13;;;;;;;12.10;5.65;;;11.20;70.20;;;6.53;100.00;95581.47;4952775;28;20023;-50
2022/12/21 08:48:40;;;;;;;11.73;5.60;;;11.30;70.20;;;6.52;100.00;95581.69;4951672;28;20027;-52
2022/12/21 08:51:08;;;;;;;13.73;6.30;;;11.20;70.10;;;6.52;100.00;95584.34;4948956;28;20373;-50
2022/12/21 08:53:38;;;;;;;11.90;5.80;;;11.20;70.20;;;6.55;100.00;95589.97;4953872;28;20054;-51
2022/12/21 08:56:05;;;;;;;16.13;6.53;;;11.20;70.30;;;6.52;100.00;95592.28;4951040;28;20124;-49
2022/12/21 08:58:40;;;;;;;16.58;6.53;;;11.20;71.00;;;6.52;100.00;95593.09;4948353;28;20448;-53
2022/12/21 09:01:06;;;;;;;13.80;5.68;;;11.20;70.30;;;6.51;100.00;95598.63;4929547;28;20485;-52
2022/12/21 09:03:32;;;;;;;16.42;5.80;;;11.20;70.30;;;6.49;100.00;95593.59;4943268;28;20038;-49
2022/12/21 09:06:02;;;;;;;10.70;5.70;;;11.20;70.30;;;6.51;100.00;95590.69;4913863;29;20109;-55
2022/12/21 09:08:29;;;;;;;10.88;5.93;;;11.20;70.40;;;6.52;100.00;95602.88;4944811;28;20433;-57
2022/12/21 09:11:13;;;;;;;12.95;5.75;;;11.20;70.30;;;6.52;100.00;95611.63;4944140;28;20126;-52
2022/12/21 09:13:41;;;;;;;13.68;5.70;;;11.30;70.50;;;6.53;100.00;95615.06;4947548;28;20065;-54
2022/12/21 09:16:23;;;;;;;14.90;6.13;;;11.30;70.40;;;6.50;100.00;95616.34;4948851;28;20023;-52
2022/12/21 09:18:51;;;;;;;11.90;5.67;;;11.30;71.20;;;6.49;100.00;95617.41;4931755;28;20038;-54
2022/12/21 09:21:22;;;;;;;11.80;5.95;;;11.30;70.30;;;6.52;100.00;95613.44;4933531;28;20031;-56
2022/12/21 09:23:51;;;;;;;14.52;6.10;;;11.30;70.30;;;6.53;100.00;95612.44;4940304;28;20027;-50
2022/12/21 09:26:23;;;;;;;11.68;6.15;;;11.30;70.30;;;6.54;100.00;95611.38;4950087;28;20049;-54
2022/12/21 09:28:54;;;;;;;12.05;6.03;;;11.30;70.40;;;6.53;100.00;95615.88;4950188;28;20072;-54
2022/12/21 09:31:24;;;;;;;11.55;6.28;;;11.30;70.40;;;6.55;100.00;95615.63;4951390;28;20019;-55
2022/12/21 09:34:02;;;;;;;9.80;5.38;;;11.30;70.50;;;6.55;100.00;95616.44;4950697;28;20524;-51
2022/12/21 09:36:28;;;;;;;12.30;5.65;;;11.30;70.50;;;6.56;100.00;95615.41;4951578;28;20097;-51
2022/12/21 09:38:55;;;;;;;13.93;6.03;;;11.30;70.50;;;6.60;100.00;95621.00;4952072;28;20485;-54
2022/12/21 09:41:37;;;;;;;14.52;6.30;;;11.30;70.50;;;6.62;100.00;95622.38;4949459;28;20019;-51
2022/12/21 09:44:40;;;;;;;14.18;5.50;;;11.40;70.60;;;6.63;100.00;95631.13;4945463;28;20062;-51
2022/12/21 09:47:21;;;;;;;10.85;5.60;;;11.40;70.50;;;6.61;100.00;95622.59;4953027;28;20034;-52
2022/12/21 09:50:03;;;;;;;12.20;5.20;;;11.40;70.40;;;6.64;100.00;95625.63;4950929;28;20496;-54
2022/12/21 09:52:48;;;;;;;11.88;5.35;;;11.40;70.40;;;6.66;100.00;95625.34;4950575;28;20120;-56
2022/12/21 09:55:27;;;;;;;10.43;5.20;;;11.40;70.40;;;6.65;100.00;95621.13;4935103;28;20039;-56
2022/12/21 09:57:57;;;;;;;9.07;4.78;;;11.40;70.30;;;6.66;100.00;95623.50;4947315;28;20031;-55
2022/12/21 10:00:36;;;;;;;8.65;4.82;;;11.40;70.30;;;6.66;100.00;95631.44;4929828;28;20034;-55
2022/12/21 10:03:36;;;;;;;10.90;5.32;;;11.40;70.30;;;6.65;100.00;95629.84;4934047;28;20034;-55
2022/12/21 10:06:22;;;;;;;11.60;5.13;;;11.40;70.30;;;6.66;100.00;95628.00;4953756;28;20486;-54
2022/12/21 10:09:17;;;;;;;9.93;5.80;;;11.50;70.40;;;6.67;100.00;95626.94;4950018;28;20034;-56
2022/12/21 10:12:27;;;;;;;9.32;5.18;;;11.50;70.40;;;6.66;100.00;95628.00;4954698;28;20019;-53
2022/12/21 10:15:39;;;;;;;7.53;5.05;;;11.50;70.50;;;6.69;100.00;95627.53;4950252;28;20379;-54
2022/12/21 10:19:10;;;;;;;8.07;4.97;;;11.50;70.40;;;6.73;100.00;95623.34;4945008;28;20042;-54
2022/12/21 10:22:22;;;;;;;8.95;4.45;;;11.50;70.40;;;6.80;100.00;95618.72;4948637;28;20573;-55
2022/12/21 10:25:12;;;;;;;9.70;4.47;;;11.60;70.50;;;6.80;100.00;95615.25;4945468;28;20401;-54
2022/12/21 10:28:26;;;;;;;10.00;4.47;;;11.60;70.50;;;6.83;100.00;95610.31;4962225;28;20371;-53
2022/12/21 10:31:09;;;;;;;7.55;3.83;;;11.60;70.30;;;6.88;100.00;95609.56;4916361;28;22788;-55
2022/12/21 10:33:43;;;;;;;9.65;4.38;;;11.70;70.50;;;6.88;100.00;95602.44;4936932;28;20039;-56
2022/12/21 10:36:19;;;;;;;16.00;5.22;;;11.70;70.50;;;6.90;100.00;95610.16;4952949;28;20026;-56
2022/12/21 10:38:48;;;;;;;7.00;4.75;;;11.70;70.50;;;6.94;100.00;95592.72;4949131;28;20054;-56
2022/12/21 10:41:25;;;;;;;8.82;3.80;;;11.70;70.40;;;6.97;100.00;95591.44;4936261;28;20023;-55
2022/12/21 10:43:58;;;;;;;5.18;3.20;;;11.80;70.60;;;7.03;100.00;95591.28;4942935;28;20133;-51
2022/12/21 10:46:33;;;;;;;4.13;2.83;;;11.80;70.60;;;7.09;100.00;95584.22;4949033;28;20031;-51
2022/12/21 10:49:31;;;;;;;5.10;2.67;;;11.90;70.60;;;7.17;100.00;95589.09;4948127;28;20034;-52
2022/12/21 10:51:57;;;;;;;4.95;2.28;;;11.90;70.50;;;7.23;100.00;95576.72;4942039;28;20022;-50
2022/12/21 10:54:29;;;;;;;4.00;2.10;;;12.00;70.40;;;7.30;100.00;95580.00;4973570;23;20477;-50
2022/12/21 10:57:00;;;;;;;3.40;2.40;;;12.10;70.40;;;7.35;100.00;95577.44;4958566;28;20030;-50
2022/12/21 10:59:38;;;;;;;3.95;2.00;;;12.00;70.20;;;7.39;100.00;95579.34;4945551;28;20054;-57
2022/12/21 11:02:09;;;;;;;3.47;1.90;;;12.10;70.30;;;7.40;100.00;95580.97;4945718;28;20477;-51
2022/12/21 11:04:38;;;;;;;3.30;2.03;;;12.10;70.20;;;7.42;100.00;95568.25;4947457;28;20030;-54
2022/12/21 11:07:29;;;;;;;3.60;1.85;;;12.20;70.20;;;7.50;100.00;95567.03;4945841;28;20389;-52
2022/12/21 11:10:36;;;;;;;3.70;2.20;;;12.30;70.10;;;7.59;100.00;95565.56;4940061;28;20059;-53